createdAt,value
2022-07-30T00:00:31.669Z,8.25
2022-07-30T00:01:35.998Z,8.63
2022-07-30T00:02:38.058Z,7.40
2022-07-30T00:03:39.779Z,9.02
2022-07-30T00:04:42.109Z,8.88
2022-07-30T00:05:43.848Z,8.75
2022-07-30T00:06:45.732Z,8.48
2022-07-30T00:07:47.471Z,9.13
2022-07-30T00:08:49.209Z,11.38
2022-07-30T00:09:51.019Z,10.48
2022-07-30T00:10:52.715Z,7.53
2022-07-30T00:11:54.440Z,7.13
2022-07-30T00:12:57.198Z,8.80
2022-07-30T00:13:58.942Z,6.30
2022-07-30T00:15:00.763Z,9.88
2022-07-30T00:16:02.579Z,9.85
2022-07-30T00:17:05.197Z,6.28
2022-07-30T00:18:07.633Z,9.82
2022-07-30T00:19:10.004Z,7.18
2022-07-30T00:20:12.029Z,7.70
2022-07-30T00:21:20.229Z,9.15
2022-07-30T00:22:36.505Z,10.70
2022-07-30T00:23:38.226Z,7.22
2022-07-30T00:24:39.970Z,11.57
2022-07-30T00:25:41.810Z,10.55
2022-07-30T00:26:43.548Z,8.75
2022-07-30T00:27:45.491Z,7.70
2022-07-30T00:28:47.232Z,11.10
2022-07-30T00:29:49.257Z,8.95
2022-07-30T00:30:52.738Z,7.80
2022-07-30T00:31:57.964Z,7.95
2022-07-30T00:32:59.707Z,8.48
2022-07-30T00:34:01.452Z,6.50
2022-07-30T00:35:03.645Z,7.25
2022-07-30T00:36:05.654Z,8.02
2022-07-30T00:37:07.394Z,6.75
2022-07-30T00:38:09.105Z,6.90
2022-07-30T00:39:10.837Z,7.55
2022-07-30T00:40:12.709Z,6.68
2022-07-30T00:41:15.634Z,9.57
2022-07-30T00:42:23.403Z,7.85
2022-07-30T00:43:25.146Z,7.90
2022-07-30T00:44:27.691Z,9.70
2022-07-30T00:45:29.454Z,6.80
2022-07-30T00:46:31.201Z,6.30
2022-07-30T00:47:33.200Z,6.82
2022-07-30T00:48:34.925Z,12.00
2022-07-30T00:49:38.470Z,7.65
2022-07-30T00:50:45.277Z,6.68
2022-07-30T00:51:47.241Z,9.30
2022-07-30T00:52:49.602Z,7.60
2022-07-30T00:53:51.457Z,6.00
2022-07-30T00:54:53.142Z,6.45
2022-07-30T00:55:55.141Z,7.38
2022-07-30T00:56:56.845Z,7.32
2022-07-30T00:57:58.777Z,6.88
2022-07-30T00:59:00.774Z,7.80
2022-07-30T01:00:03.807Z,6.75
2022-07-30T01:01:05.601Z,6.20
2022-07-30T01:02:07.467Z,6.60
2022-07-30T01:03:09.420Z,6.20
2022-07-30T01:04:14.052Z,6.78
2022-07-30T01:05:16.462Z,7.05
2022-07-30T01:06:18.207Z,6.25
2022-07-30T01:07:19.913Z,5.75
2022-07-30T01:08:21.634Z,8.23
2022-07-30T01:09:23.376Z,8.07
2022-07-30T01:10:25.262Z,7.25
2022-07-30T01:11:35.551Z,6.30
2022-07-30T01:12:37.827Z,8.25
2022-07-30T01:13:39.670Z,7.07
2022-07-30T01:14:41.445Z,9.57
2022-07-30T01:15:43.985Z,7.90
2022-07-30T01:16:46.261Z,11.48
2022-07-30T01:17:52.724Z,6.45
2022-07-30T01:19:16.355Z,7.45
2022-07-30T01:20:24.553Z,5.80
2022-07-30T01:21:34.362Z,7.53
2022-07-30T01:23:14.432Z,7.30
2022-07-30T01:24:38.766Z,10.77
2022-07-30T01:25:58.587Z,8.50
2022-07-30T01:27:01.286Z,7.60
2022-07-30T01:28:18.639Z,8.82
2022-07-30T01:29:21.527Z,8.43
2022-07-30T01:30:27.116Z,7.78
2022-07-30T01:31:29.878Z,7.25
2022-07-30T01:32:34.353Z,7.80
2022-07-30T01:33:40.478Z,7.07
2022-07-30T01:34:43.470Z,6.95
2022-07-30T01:35:48.164Z,6.88
2022-07-30T01:36:50.960Z,8.02
2022-07-30T01:37:54.513Z,6.63
2022-07-30T01:38:57.604Z,7.63
2022-07-30T01:40:00.126Z,9.38
2022-07-30T01:41:03.774Z,6.72
2022-07-30T01:42:08.477Z,6.47
2022-07-30T01:43:11.130Z,7.18
2022-07-30T01:44:14.712Z,7.72
2022-07-30T01:45:28.331Z,12.15
2022-07-30T01:46:30.973Z,8.48
2022-07-30T01:47:35.783Z,8.40
2022-07-30T01:48:41.083Z,8.57
2022-07-30T01:49:46.456Z,7.25
2022-07-30T01:50:51.330Z,7.22
2022-07-30T01:51:54.784Z,7.00
2022-07-30T01:52:58.981Z,10.27
2022-07-30T01:54:01.832Z,7.80
2022-07-30T01:55:05.853Z,6.97
2022-07-30T01:56:24.767Z,9.70
2022-07-30T01:57:27.101Z,7.40
2022-07-30T01:58:35.477Z,7.38
2022-07-30T01:59:39.103Z,7.20
2022-07-30T02:00:44.510Z,7.75
2022-07-30T02:01:46.446Z,8.90
2022-07-30T02:02:48.305Z,7.45
2022-07-30T02:03:50.144Z,10.25
2022-07-30T02:04:51.980Z,8.20
2022-07-30T02:06:00.544Z,6.97
2022-07-30T02:07:14.847Z,8.50
2022-07-30T02:08:24.450Z,8.55
2022-07-30T02:09:37.838Z,8.43
2022-07-30T02:10:45.261Z,8.10
2022-07-30T02:12:09.836Z,8.98
2022-07-30T02:13:14.059Z,7.95
2022-07-30T02:14:23.698Z,9.85
2022-07-30T02:15:45.644Z,6.93
2022-07-30T02:16:53.095Z,8.43
2022-07-30T02:18:39.604Z,6.78
2022-07-30T02:19:44.972Z,7.60
2022-07-30T02:20:55.678Z,9.77
2022-07-30T02:22:08.712Z,8.65
2022-07-30T02:23:12.574Z,7.82
2022-07-30T02:24:19.183Z,8.73
2022-07-30T02:25:22.724Z,6.40
2022-07-30T02:26:26.303Z,6.13
2022-07-30T02:27:32.068Z,8.85
2022-07-30T02:28:38.161Z,6.22
2022-07-30T02:29:42.108Z,8.80
2022-07-30T02:30:53.415Z,8.07
2022-07-30T02:31:57.768Z,7.13
2022-07-30T02:33:04.761Z,12.48
2022-07-30T02:34:08.923Z,14.48
2022-07-30T02:35:23.685Z,15.13
2022-07-30T02:36:26.894Z,9.88
2022-07-30T02:37:43.363Z,8.35
2022-07-30T02:38:47.405Z,6.70
2022-07-30T02:39:52.016Z,7.00
2022-07-30T02:40:56.988Z,9.55
2022-07-30T02:41:59.501Z,7.00
2022-07-30T02:43:02.185Z,6.65
2022-07-30T02:44:05.415Z,7.00
2022-07-30T02:45:08.055Z,12.10
2022-07-30T02:46:12.741Z,6.97
2022-07-30T02:47:16.607Z,6.82
2022-07-30T02:48:34.632Z,7.80
2022-07-30T02:49:39.799Z,7.13
2022-07-30T02:50:42.323Z,8.43
2022-07-30T02:51:47.310Z,6.70
2022-07-30T02:52:50.987Z,8.75
2022-07-30T02:53:55.156Z,7.72
2022-07-30T02:54:58.720Z,6.22
2022-07-30T02:56:01.921Z,6.85
2022-07-30T02:57:04.675Z,7.50
2022-07-30T02:58:07.480Z,7.07
2022-07-30T02:59:11.493Z,8.15
2022-07-30T03:00:13.889Z,7.40
2022-07-30T03:01:18.080Z,7.47
2022-07-30T03:02:26.547Z,9.68
2022-07-30T03:03:32.737Z,9.48
2022-07-30T03:04:36.729Z,7.05
2022-07-30T03:05:41.133Z,6.47
2022-07-30T03:06:44.324Z,7.05
2022-07-30T03:07:47.512Z,8.00
2022-07-30T03:08:49.870Z,7.00
2022-07-30T03:09:55.947Z,9.25
2022-07-30T03:10:58.672Z,17.63
2022-07-30T03:12:02.944Z,7.22
2022-07-30T03:13:07.054Z,6.57
2022-07-30T03:14:08.829Z,7.38
2022-07-30T03:15:11.985Z,8.23
2022-07-30T03:16:14.840Z,8.65
2022-07-30T03:17:18.421Z,8.88
2022-07-30T03:18:23.401Z,6.78
2022-07-30T03:19:28.841Z,8.38
2022-07-30T03:20:34.649Z,6.97
2022-07-30T03:21:37.961Z,6.40
2022-07-30T03:22:47.497Z,7.88
2022-07-30T03:23:50.385Z,8.35
2022-07-30T03:24:54.362Z,6.95
2022-07-30T03:26:00.148Z,6.60
2022-07-30T03:27:04.003Z,6.43
2022-07-30T03:28:07.563Z,6.63
2022-07-30T03:29:10.594Z,8.50
2022-07-30T03:30:13.331Z,7.65
2022-07-30T03:31:16.251Z,9.02
2022-07-30T03:32:18.944Z,8.05
2022-07-30T03:33:38.761Z,7.25
2022-07-30T03:34:42.615Z,8.75
2022-07-30T03:35:47.219Z,7.68
2022-07-30T03:36:50.202Z,9.38
2022-07-30T03:37:53.156Z,6.88
2022-07-30T03:38:55.230Z,8.02
2022-07-30T03:39:58.328Z,7.43
2022-07-30T03:41:00.763Z,7.75
2022-07-30T03:42:03.508Z,11.38
2022-07-30T03:43:18.185Z,11.98
2022-07-30T03:44:30.435Z,7.18
2022-07-30T03:45:33.116Z,7.80
2022-07-30T03:46:37.211Z,7.95
2022-07-30T03:47:42.040Z,7.40
2022-07-30T03:48:44.742Z,8.60
2022-07-30T03:49:46.629Z,9.18
2022-07-30T03:50:49.222Z,8.00
2022-07-30T03:51:52.501Z,7.47
2022-07-30T03:52:55.132Z,6.90
2022-07-30T03:53:57.281Z,6.65
2022-07-30T03:54:59.479Z,12.20
2022-07-30T03:56:01.918Z,8.10
2022-07-30T03:57:06.189Z,6.63
2022-07-30T03:58:08.092Z,6.80
2022-07-30T03:59:10.345Z,8.95
2022-07-30T04:00:16.239Z,6.70
2022-07-30T04:01:18.268Z,6.78
2022-07-30T04:02:20.187Z,7.72
2022-07-30T04:03:30.109Z,7.72
2022-07-30T04:04:31.869Z,7.13
2022-07-30T04:05:40.950Z,6.95
2022-07-30T04:06:43.636Z,7.40
2022-07-30T04:07:47.591Z,7.60
2022-07-30T04:08:49.550Z,7.47
2022-07-30T04:09:51.244Z,8.60
2022-07-30T04:10:53.251Z,7.90
2022-07-30T04:11:54.973Z,8.55
2022-07-30T04:12:56.711Z,7.45
2022-07-30T04:13:58.519Z,10.02
2022-07-30T04:15:00.338Z,8.32
2022-07-30T04:16:39.112Z,8.35
2022-07-30T04:17:51.437Z,10.57
2022-07-30T04:18:54.759Z,8.20
2022-07-30T04:20:25.358Z,7.97
2022-07-30T04:21:28.926Z,9.23
2022-07-30T04:22:34.971Z,7.47
2022-07-30T04:24:03.935Z,7.95
2022-07-30T04:25:02.356Z,9.95
2022-07-30T04:26:04.369Z,9.23
2022-07-30T04:27:06.713Z,7.45
2022-07-30T04:28:10.782Z,7.85
2022-07-30T04:29:13.381Z,10.35
2022-07-30T04:30:16.322Z,7.38
2022-07-30T04:31:18.469Z,7.78
2022-07-30T04:32:20.435Z,7.47
2022-07-30T04:33:22.116Z,8.23
2022-07-30T04:34:23.970Z,9.40
2022-07-30T04:35:51.098Z,10.50
2022-07-30T04:36:51.564Z,7.15
2022-07-30T04:37:53.325Z,7.65
2022-07-30T04:38:55.061Z,10.35
2022-07-30T04:39:59.768Z,12.00
2022-07-30T04:41:02.024Z,7.97
2022-07-30T04:42:03.868Z,9.55
2022-07-30T04:43:05.612Z,10.32
2022-07-30T04:44:07.353Z,10.25
2022-07-30T04:45:09.482Z,8.50
2022-07-30T04:46:14.596Z,8.52
2022-07-30T04:47:17.658Z,8.07
2022-07-30T04:48:19.437Z,8.02
2022-07-30T04:49:22.679Z,9.80
2022-07-30T04:50:27.563Z,8.85
2022-07-30T04:51:33.878Z,9.02
2022-07-30T04:52:37.093Z,8.50
2022-07-30T04:53:40.482Z,8.65
2022-07-30T04:55:11.684Z,7.95
2022-07-30T04:56:15.273Z,8.75
2022-07-30T04:57:19.098Z,9.80
2022-07-30T04:58:22.251Z,8.63
2022-07-30T04:59:25.298Z,8.63
2022-07-30T05:00:30.901Z,8.90
2022-07-30T05:01:40.546Z,8.63
2022-07-30T05:02:44.348Z,10.30
2022-07-30T05:03:47.677Z,8.98
2022-07-30T05:04:50.404Z,9.07
2022-07-30T05:05:57.148Z,9.23
2022-07-30T05:07:01.396Z,8.80
2022-07-30T05:08:04.345Z,7.90
2022-07-30T05:09:06.424Z,7.93
2022-07-30T05:10:09.016Z,8.40
2022-07-30T05:11:14.746Z,8.20
2022-07-30T05:12:16.437Z,8.35
2022-07-30T05:13:18.222Z,8.50
2022-07-30T05:14:25.667Z,8.68
2022-07-30T05:15:36.257Z,9.02
2022-07-30T05:16:39.590Z,9.45
2022-07-30T05:17:41.471Z,10.07
2022-07-30T05:18:43.701Z,13.02
2022-07-30T05:19:45.399Z,8.30
2022-07-30T05:20:50.175Z,7.63
2022-07-30T05:21:52.123Z,8.43
2022-07-30T05:22:53.841Z,7.93
2022-07-30T05:23:55.678Z,9.50
2022-07-30T05:24:57.707Z,8.18
2022-07-30T05:25:59.739Z,8.70
2022-07-30T05:27:01.733Z,7.55
2022-07-30T05:28:03.840Z,7.90
2022-07-30T05:29:06.987Z,8.60
2022-07-30T05:30:09.825Z,8.07
2022-07-30T05:31:14.659Z,8.52
2022-07-30T05:32:17.766Z,8.38
2022-07-30T05:33:22.027Z,7.35
2022-07-30T05:34:43.169Z,7.45
2022-07-30T05:35:51.658Z,9.25
2022-07-30T05:36:53.538Z,7.47
2022-07-30T05:37:55.266Z,11.23
2022-07-30T05:38:57.223Z,8.68
2022-07-30T05:40:02.835Z,8.07
2022-07-30T05:41:05.453Z,9.90
2022-07-30T05:42:27.132Z,9.30
2022-07-30T05:43:28.877Z,9.20
2022-07-30T05:44:30.752Z,9.57
2022-07-30T05:45:32.501Z,10.65
2022-07-30T05:46:34.320Z,9.75
2022-07-30T05:47:36.197Z,8.52
2022-07-30T05:48:38.077Z,9.30
2022-07-30T05:49:39.785Z,9.77
2022-07-30T05:50:41.624Z,7.60
2022-07-30T05:51:43.345Z,7.75
2022-07-30T05:52:46.598Z,8.32
2022-07-30T05:53:48.365Z,8.90
2022-07-30T05:54:50.074Z,8.63
2022-07-30T05:55:51.760Z,7.38
2022-07-30T05:56:53.493Z,7.97
2022-07-30T05:57:55.201Z,8.50
2022-07-30T05:58:56.869Z,7.60
2022-07-30T05:59:58.552Z,7.82
2022-07-30T06:01:00.245Z,7.18
2022-07-30T06:02:03.294Z,8.85
2022-07-30T06:03:05.193Z,6.88
2022-07-30T06:04:06.916Z,7.32
2022-07-30T06:05:09.001Z,7.10
2022-07-30T06:06:10.695Z,7.03
2022-07-30T06:07:12.456Z,10.80
2022-07-30T06:08:14.560Z,7.13
2022-07-30T06:09:16.245Z,6.90
2022-07-30T06:10:17.989Z,10.23
2022-07-30T06:11:19.885Z,7.60
2022-07-30T06:12:21.621Z,6.68
2022-07-30T06:13:23.610Z,7.93
2022-07-30T06:14:25.363Z,7.78
2022-07-30T06:15:27.277Z,6.93
2022-07-30T06:16:29.019Z,6.93
2022-07-30T06:17:30.776Z,11.57
2022-07-30T06:18:43.062Z,7.15
2022-07-30T06:19:44.844Z,7.68
2022-07-30T06:20:46.753Z,7.65
2022-07-30T06:22:05.637Z,9.77
2022-07-30T06:23:08.647Z,8.02
2022-07-30T06:24:10.767Z,12.90
2022-07-30T06:25:12.886Z,7.00
2022-07-30T06:26:20.401Z,10.38
2022-07-30T06:27:22.221Z,7.78
2022-07-30T06:28:39.729Z,8.07
2022-07-30T06:29:42.143Z,9.93
2022-07-30T06:30:48.784Z,7.75
2022-07-30T06:31:50.485Z,7.25
2022-07-30T06:32:52.349Z,7.22
2022-07-30T06:33:54.085Z,8.23
2022-07-30T06:35:03.942Z,10.30
2022-07-30T06:36:06.758Z,7.53
2022-07-30T06:37:08.454Z,7.03
2022-07-30T06:38:10.171Z,7.38
2022-07-30T06:39:12.044Z,6.47
2022-07-30T06:40:14.201Z,8.15
2022-07-30T06:41:15.953Z,6.20
2022-07-30T06:42:17.958Z,7.60
2022-07-30T06:43:21.166Z,8.63
2022-07-30T06:44:22.934Z,8.23
2022-07-30T06:45:24.696Z,7.53
2022-07-30T06:46:26.526Z,7.25
2022-07-30T06:47:31.319Z,6.65
2022-07-30T06:48:33.265Z,6.47
2022-07-30T06:49:36.136Z,8.02
2022-07-30T06:50:37.842Z,6.32
2022-07-30T06:51:39.519Z,6.05
2022-07-30T06:52:41.259Z,6.93
2022-07-30T06:53:45.728Z,7.35
2022-07-30T06:54:48.415Z,4.70
2022-07-30T06:55:50.966Z,5.70
2022-07-30T06:56:54.929Z,5.28
2022-07-30T06:57:56.698Z,5.30
2022-07-30T06:58:58.392Z,5.82
2022-07-30T07:00:00.169Z,6.00
2022-07-30T07:01:02.062Z,7.07
2022-07-30T07:02:03.836Z,5.13
2022-07-30T07:03:08.751Z,6.03
2022-07-30T07:04:13.475Z,8.82
2022-07-30T07:05:15.279Z,7.55
2022-07-30T07:06:17.015Z,4.75
2022-07-30T07:07:37.058Z,5.28
2022-07-30T07:08:40.508Z,8.38
2022-07-30T07:09:44.655Z,4.40
2022-07-30T07:10:46.669Z,7.25
2022-07-30T07:11:48.425Z,9.65
2022-07-30T07:12:50.188Z,9.07
2022-07-30T07:13:51.965Z,8.65
2022-07-30T07:14:53.658Z,6.80
2022-07-30T07:15:55.409Z,8.40
2022-07-30T07:16:57.160Z,5.88
2022-07-30T07:17:58.942Z,6.95
2022-07-30T07:19:03.937Z,6.30
2022-07-30T07:20:06.038Z,6.45
2022-07-30T07:21:08.318Z,6.43
2022-07-30T07:22:10.048Z,6.10
2022-07-30T07:23:12.681Z,5.85
2022-07-30T07:24:15.535Z,6.70
2022-07-30T07:25:17.848Z,6.38
2022-07-30T07:26:19.638Z,8.43
2022-07-30T07:27:21.488Z,9.50
2022-07-30T07:28:30.663Z,9.73
2022-07-30T07:29:35.775Z,8.73
2022-07-30T07:30:37.822Z,6.30
2022-07-30T07:32:06.082Z,6.20
2022-07-30T07:33:01.610Z,6.82
2022-07-30T07:34:03.381Z,5.25
2022-07-30T07:35:05.936Z,6.72
2022-07-30T07:36:07.722Z,8.00
2022-07-30T07:37:09.457Z,6.70
2022-07-30T07:38:11.173Z,7.85
2022-07-30T07:39:15.040Z,5.68
2022-07-30T07:40:16.874Z,5.93
2022-07-30T07:41:18.583Z,4.82
2022-07-30T07:42:20.352Z,6.00
2022-07-30T07:43:22.124Z,6.45
2022-07-30T07:44:24.578Z,5.38
2022-07-30T07:45:26.331Z,6.22
2022-07-30T07:46:33.561Z,5.95
2022-07-30T07:47:52.014Z,5.85
2022-07-30T07:48:55.205Z,7.00
2022-07-30T07:49:57.377Z,4.78
2022-07-30T07:51:00.599Z,6.95
2022-07-30T07:52:02.599Z,4.50
2022-07-30T07:53:05.442Z,7.63
2022-07-30T07:54:21.178Z,7.97
2022-07-30T07:55:24.168Z,10.48
2022-07-30T07:56:27.239Z,6.10
2022-07-30T07:57:29.637Z,7.05
2022-07-30T07:58:33.224Z,7.78
2022-07-30T07:59:36.010Z,5.80
2022-07-30T08:00:41.870Z,5.75
2022-07-30T08:01:43.742Z,5.88
2022-07-30T08:02:47.335Z,6.93
2022-07-30T08:03:49.182Z,6.05
2022-07-30T08:04:50.883Z,6.25
2022-07-30T08:05:59.071Z,3.97
2022-07-30T08:07:07.837Z,5.78
2022-07-30T08:08:09.582Z,5.32
2022-07-30T08:09:11.274Z,6.20
2022-07-30T08:10:15.072Z,3.90
2022-07-30T08:11:16.802Z,3.28
2022-07-30T08:12:18.515Z,3.50
2022-07-30T08:13:51.644Z,4.35
2022-07-30T08:14:41.982Z,4.32
2022-07-30T08:15:43.751Z,6.13
2022-07-30T08:16:45.536Z,6.93
2022-07-30T08:17:47.570Z,3.80
2022-07-30T08:18:49.529Z,4.22
2022-07-30T08:19:51.609Z,5.78
2022-07-30T08:20:53.434Z,4.68
2022-07-30T08:21:55.237Z,4.60
2022-07-30T08:22:57.002Z,4.15
2022-07-30T08:23:58.894Z,4.80
2022-07-30T08:25:00.699Z,4.35
2022-07-30T08:26:05.411Z,5.93
2022-07-30T08:27:07.194Z,4.25
2022-07-30T08:28:08.965Z,4.15
2022-07-30T08:29:30.677Z,4.80
2022-07-30T08:30:32.661Z,3.00
2022-07-30T08:31:34.419Z,4.95
2022-07-30T08:32:36.866Z,6.25
2022-07-30T08:33:38.865Z,3.03
2022-07-30T08:34:40.671Z,5.03
2022-07-30T08:35:49.138Z,3.20
2022-07-30T08:36:57.617Z,3.15
2022-07-30T08:38:00.086Z,3.58
2022-07-30T08:39:01.886Z,7.68
2022-07-30T08:40:05.217Z,5.22
2022-07-30T08:41:07.653Z,9.25
2022-07-30T08:42:09.737Z,6.05
2022-07-30T08:43:11.466Z,6.32
2022-07-30T08:44:13.307Z,3.92
2022-07-30T08:45:17.423Z,3.00
2022-07-30T08:46:21.592Z,6.60
2022-07-30T08:47:31.036Z,3.55
2022-07-30T08:48:34.424Z,5.97
2022-07-30T08:49:37.415Z,4.45
2022-07-30T08:50:39.950Z,6.63
2022-07-30T08:51:42.136Z,4.47
2022-07-30T08:52:44.525Z,6.60
2022-07-30T08:53:46.745Z,7.00
2022-07-30T08:54:48.585Z,5.13
2022-07-30T08:55:50.482Z,3.78
2022-07-30T08:56:52.409Z,4.90
2022-07-30T08:57:54.917Z,4.38
2022-07-30T08:58:57.213Z,4.53
2022-07-30T09:00:01.567Z,3.83
2022-07-30T09:01:05.624Z,3.65
2022-07-30T09:02:10.589Z,4.40
2022-07-30T09:03:14.447Z,5.20
2022-07-30T09:04:16.139Z,4.43
2022-07-30T09:05:17.963Z,2.90
2022-07-30T09:06:19.747Z,2.95
2022-07-30T09:07:21.518Z,3.63
2022-07-30T09:08:23.316Z,5.68
2022-07-30T09:09:25.058Z,4.80
2022-07-30T09:10:27.019Z,4.63
2022-07-30T09:11:28.837Z,4.85
2022-07-30T09:12:33.074Z,4.88
2022-07-30T09:13:37.678Z,8.93
2022-07-30T09:14:39.380Z,3.38
2022-07-30T09:15:41.217Z,4.32
2022-07-30T09:16:45.358Z,3.88
2022-07-30T09:17:49.918Z,3.45
2022-07-30T09:18:53.582Z,6.57
2022-07-30T09:20:05.191Z,2.90
2022-07-30T09:21:24.539Z,2.97
2022-07-30T09:22:42.973Z,3.60
2022-07-30T09:23:59.842Z,5.90
2022-07-30T09:25:01.570Z,2.75
2022-07-30T09:26:03.302Z,3.88
2022-07-30T09:27:06.951Z,2.80
2022-07-30T09:28:16.728Z,5.15
2022-07-30T09:29:20.926Z,4.10
2022-07-30T09:30:22.635Z,5.40
2022-07-30T09:31:24.501Z,4.95
2022-07-30T09:32:46.375Z,7.18
2022-07-30T09:33:48.447Z,5.53
2022-07-30T09:34:50.199Z,5.60
2022-07-30T09:35:56.736Z,2.75
2022-07-30T09:37:01.856Z,5.15
2022-07-30T09:38:06.705Z,5.18
2022-07-30T09:39:08.587Z,5.20
2022-07-30T09:40:18.424Z,3.13
2022-07-30T09:41:40.231Z,4.68
2022-07-30T09:42:42.383Z,4.68
2022-07-30T09:43:45.229Z,6.60
2022-07-30T09:44:48.314Z,2.83
2022-07-30T09:45:57.887Z,7.15
2022-07-30T09:47:01.216Z,5.30
2022-07-30T09:48:19.812Z,3.53
2022-07-30T09:49:24.760Z,7.18
2022-07-30T09:50:29.937Z,6.57
2022-07-30T09:51:54.593Z,3.22
2022-07-30T09:53:09.457Z,4.20
2022-07-30T09:54:11.376Z,3.95
2022-07-30T09:55:14.718Z,5.88
2022-07-30T09:56:29.998Z,5.18
2022-07-30T09:57:32.055Z,3.97
2022-07-30T09:58:45.583Z,4.95
2022-07-30T09:59:47.942Z,4.53
2022-07-30T10:00:58.406Z,3.85
2022-07-30T10:02:01.472Z,4.72
2022-07-30T10:03:22.016Z,4.07
2022-07-30T10:04:35.110Z,5.55
2022-07-30T10:05:56.454Z,4.45
2022-07-30T10:07:00.700Z,3.53
2022-07-30T10:08:16.467Z,4.50
2022-07-30T10:09:29.384Z,6.18
2022-07-30T10:10:32.034Z,2.92
2022-07-30T10:11:33.903Z,4.00
2022-07-30T10:12:36.632Z,3.45
2022-07-30T10:13:45.243Z,3.80
2022-07-30T10:14:49.349Z,4.30
2022-07-30T10:15:52.063Z,3.05
2022-07-30T10:16:54.384Z,2.95
2022-07-30T10:17:57.241Z,3.92
2022-07-30T10:19:00.368Z,3.42
2022-07-30T10:20:03.070Z,4.00
2022-07-30T10:21:11.719Z,3.17
2022-07-30T10:22:18.875Z,5.97
2022-07-30T10:23:27.255Z,2.90
2022-07-30T10:24:31.377Z,2.85
2022-07-30T10:25:35.215Z,4.32
2022-07-30T10:26:38.706Z,2.85
2022-07-30T10:27:40.626Z,4.32
2022-07-30T10:28:43.560Z,4.70
2022-07-30T10:29:45.608Z,2.70
2022-07-30T10:30:50.728Z,4.28
2022-07-30T10:31:54.434Z,5.15
2022-07-30T10:32:58.553Z,4.47
2022-07-30T10:34:02.557Z,3.67
2022-07-30T10:35:05.915Z,3.50
2022-07-30T10:36:11.743Z,3.20
2022-07-30T10:37:17.210Z,3.45
2022-07-30T10:38:23.951Z,4.63
2022-07-30T10:39:29.608Z,3.22
2022-07-30T10:40:40.946Z,2.90
2022-07-30T10:41:48.561Z,4.60
2022-07-30T10:43:20.673Z,5.03
2022-07-30T10:44:34.624Z,2.42
2022-07-30T10:45:36.520Z,2.85
2022-07-30T10:47:07.728Z,2.20
2022-07-30T10:48:11.713Z,3.45
2022-07-30T10:49:19.339Z,2.95
2022-07-30T10:50:26.798Z,5.07
2022-07-30T10:52:04.112Z,2.80
2022-07-30T10:53:07.268Z,3.38
2022-07-30T10:54:39.171Z,4.35
2022-07-30T10:55:41.709Z,3.00
2022-07-30T10:56:43.526Z,4.68
2022-07-30T10:58:01.916Z,5.22
2022-07-30T10:59:11.656Z,4.90
2022-07-30T11:00:17.781Z,6.05
2022-07-30T11:01:19.667Z,2.70
2022-07-30T11:02:27.088Z,3.95
2022-07-30T11:03:40.433Z,5.45
2022-07-30T11:04:46.681Z,4.78
2022-07-30T11:05:50.608Z,2.80
2022-07-30T11:07:17.120Z,1.90
2022-07-30T11:08:35.792Z,3.50
2022-07-30T11:09:40.847Z,2.25
2022-07-30T11:10:43.969Z,2.97
2022-07-30T11:12:02.351Z,2.28
2022-07-30T11:13:08.794Z,4.63
2022-07-30T11:14:12.767Z,3.50
2022-07-30T11:15:18.469Z,3.95
2022-07-30T11:16:24.030Z,3.97
2022-07-30T11:17:26.851Z,2.75
2022-07-30T11:18:28.943Z,2.97
2022-07-30T11:19:56.507Z,2.42
2022-07-30T11:21:16.179Z,3.47
2022-07-30T11:22:26.918Z,4.15
2022-07-30T11:23:28.616Z,2.85
2022-07-30T11:24:46.277Z,4.05
2022-07-30T11:25:51.102Z,2.90
2022-07-30T11:26:54.143Z,3.42
2022-07-30T11:27:57.380Z,4.03
2022-07-30T11:28:59.136Z,4.00
2022-07-30T11:30:03.048Z,3.17
2022-07-30T11:31:36.940Z,2.97
2022-07-30T11:32:48.934Z,4.63
2022-07-30T11:33:50.730Z,4.20
2022-07-30T11:35:12.004Z,5.10
2022-07-30T11:36:15.578Z,2.22
2022-07-30T11:37:22.367Z,2.00
2022-07-30T11:38:58.860Z,4.97
2022-07-30T11:40:05.348Z,3.28
2022-07-30T11:41:07.011Z,4.13
2022-07-30T11:42:27.531Z,2.10
2022-07-30T11:43:36.265Z,3.80
2022-07-30T11:44:38.738Z,2.25
2022-07-30T11:45:40.967Z,3.25
2022-07-30T11:46:49.423Z,3.40
2022-07-30T11:47:54.339Z,2.05
2022-07-30T11:49:02.708Z,2.60
2022-07-30T11:50:04.899Z,2.63
2022-07-30T11:51:06.947Z,2.55
2022-07-30T11:52:09.085Z,5.03
2022-07-30T11:53:15.945Z,3.10
2022-07-30T11:54:18.820Z,4.55
2022-07-30T11:55:25.912Z,2.15
2022-07-30T11:56:27.700Z,2.83
2022-07-30T11:57:42.489Z,2.95
2022-07-30T11:58:44.805Z,2.22
2022-07-30T11:59:54.079Z,3.08
2022-07-30T12:01:00.837Z,2.50
2022-07-30T12:02:02.928Z,5.60
2022-07-30T12:03:16.351Z,2.58
2022-07-30T12:04:18.776Z,3.00
2022-07-30T12:05:26.008Z,3.47
2022-07-30T12:06:28.489Z,4.70
2022-07-30T12:07:30.507Z,4.53
2022-07-30T12:08:46.180Z,2.03
2022-07-30T12:09:47.895Z,3.58
2022-07-30T12:10:58.860Z,7.25
2022-07-30T12:12:01.122Z,2.83
2022-07-30T12:13:16.666Z,1.95
2022-07-30T12:14:18.394Z,3.75
2022-07-30T12:15:31.584Z,3.97
2022-07-30T12:16:33.643Z,3.60
2022-07-30T12:17:43.220Z,2.25
2022-07-30T12:18:46.331Z,5.63
2022-07-30T12:19:48.869Z,3.60
2022-07-30T12:20:59.403Z,3.20
2022-07-30T12:22:01.525Z,2.88
2022-07-30T12:23:10.052Z,2.13
2022-07-30T12:24:12.053Z,3.40
2022-07-30T12:25:14.053Z,3.47
2022-07-30T12:26:29.920Z,3.42
2022-07-30T12:27:31.662Z,1.95
2022-07-30T12:28:35.238Z,2.28
2022-07-30T12:29:37.450Z,2.33
2022-07-30T12:30:40.985Z,2.55
2022-07-30T12:31:43.040Z,2.42
2022-07-30T12:32:46.012Z,1.77
2022-07-30T12:33:47.718Z,2.85
2022-07-30T12:34:56.146Z,2.88
2022-07-30T12:36:00.099Z,2.97
2022-07-30T12:37:10.053Z,3.58
2022-07-30T12:38:12.860Z,2.88
2022-07-30T12:39:22.873Z,3.65
2022-07-30T12:40:25.385Z,2.35
2022-07-30T12:41:48.384Z,2.05
2022-07-30T12:42:53.488Z,8.30
2022-07-30T12:43:56.274Z,4.03
2022-07-30T12:44:58.431Z,2.28
2022-07-30T12:46:00.435Z,4.40
2022-07-30T12:47:04.676Z,2.65
2022-07-30T12:48:11.128Z,1.85
2022-07-30T12:49:22.050Z,3.95
2022-07-30T12:50:25.752Z,1.73
2022-07-30T12:51:48.748Z,3.38
2022-07-30T12:52:52.916Z,3.42
2022-07-30T12:53:56.508Z,2.85
2022-07-30T12:55:09.872Z,4.43
2022-07-30T12:56:20.277Z,1.30
2022-07-30T12:57:21.990Z,2.88
2022-07-30T12:58:23.737Z,3.33
2022-07-30T12:59:25.981Z,2.85
2022-07-30T13:00:30.796Z,2.03
2022-07-30T13:01:43.633Z,2.47
2022-07-30T13:02:45.567Z,1.50
2022-07-30T13:03:47.484Z,1.55
2022-07-30T13:04:59.160Z,2.30
2022-07-30T13:06:23.642Z,1.63
2022-07-30T13:07:29.026Z,1.77
2022-07-30T13:08:53.071Z,1.60
2022-07-30T13:10:12.448Z,2.28
2022-07-30T13:11:15.500Z,1.42
2022-07-30T13:12:17.267Z,4.57
2022-07-30T13:13:19.541Z,2.00
2022-07-30T13:14:24.036Z,2.08
2022-07-30T13:15:28.278Z,1.60
2022-07-30T13:16:35.143Z,3.97
2022-07-30T13:17:37.993Z,3.20
2022-07-30T13:18:40.581Z,1.73
2022-07-30T13:19:42.264Z,4.38
2022-07-30T13:20:44.126Z,2.90
2022-07-30T13:21:49.601Z,2.30
2022-07-30T13:22:51.866Z,3.15
2022-07-30T13:23:53.579Z,2.65
2022-07-30T13:24:55.269Z,3.63
2022-07-30T13:25:58.089Z,2.22
2022-07-30T13:26:59.802Z,1.52
2022-07-30T13:28:01.525Z,1.63
2022-07-30T13:29:04.072Z,1.75
2022-07-30T13:30:07.042Z,2.42
2022-07-30T13:31:09.045Z,1.63
2022-07-30T13:32:10.825Z,2.78
2022-07-30T13:33:12.559Z,1.73
2022-07-30T13:34:14.289Z,3.13
2022-07-30T13:35:16.028Z,1.60
2022-07-30T13:36:18.245Z,2.30
2022-07-30T13:37:20.048Z,2.15
2022-07-30T13:38:25.483Z,1.95
2022-07-30T13:39:27.389Z,1.80
2022-07-30T13:40:32.104Z,1.60
2022-07-30T13:41:36.086Z,2.50
2022-07-30T13:42:37.884Z,3.45
2022-07-30T13:43:39.615Z,1.83
2022-07-30T13:44:41.707Z,2.75
2022-07-30T13:45:44.822Z,3.20
2022-07-30T13:46:46.566Z,3.60
2022-07-30T13:47:48.458Z,1.67
2022-07-30T13:48:50.251Z,2.00
2022-07-30T13:49:52.047Z,2.30
2022-07-30T13:50:53.786Z,2.63
2022-07-30T13:51:55.520Z,2.88
2022-07-30T13:53:01.691Z,1.90
2022-07-30T13:54:05.096Z,4.50
2022-07-30T13:55:06.991Z,1.95
2022-07-30T13:56:12.437Z,1.50
2022-07-30T13:57:14.774Z,2.40
2022-07-30T13:58:16.476Z,2.42
2022-07-30T13:59:18.201Z,2.47
2022-07-30T14:00:19.948Z,2.47
2022-07-30T14:01:21.852Z,2.28
2022-07-30T14:02:23.560Z,4.05
2022-07-30T14:03:25.291Z,1.92
2022-07-30T14:04:27.023Z,1.73
2022-07-30T14:05:29.091Z,1.95
2022-07-30T14:06:30.805Z,3.13
2022-07-30T14:07:33.928Z,2.28
2022-07-30T14:08:35.649Z,2.85
2022-07-30T14:09:44.931Z,3.53
2022-07-30T14:10:48.840Z,4.28
2022-07-30T14:11:50.593Z,1.70
2022-07-30T14:12:55.038Z,1.70
2022-07-30T14:13:56.786Z,2.10
2022-07-30T14:14:58.510Z,1.90
2022-07-30T14:16:00.241Z,3.63
2022-07-30T14:17:02.111Z,2.22
2022-07-30T14:18:04.145Z,2.97
2022-07-30T14:19:06.306Z,3.00
2022-07-30T14:20:08.380Z,3.60
2022-07-30T14:21:10.093Z,3.92
2022-07-30T14:22:12.656Z,1.85
2022-07-30T14:23:14.433Z,2.22
2022-07-30T14:24:16.508Z,1.77
2022-07-30T14:25:19.052Z,2.08
2022-07-30T14:26:20.789Z,2.65